Time;durP1;ratioP1;P1;durP2;ratioP2;P2;SDS_P1;SDS_P2;PMS_P1;PMS_P2;Temp;Humidity;BMP_temperature;BMP_pressure;BME280_temperature;BME280_humidity;BME280_pressure;Samples;Min_cycle;Max_cycle;Signal;HPM_P1;HPM_P2
2023/04/07 00:00:26;;;;;;;;;;;;;;;4.68;71.58;99725.13;4506919;31;33036;-72
2023/04/07 00:02:54;;;;;;;;;;;;;;;4.89;70.69;99725.66;4511371;31;33175;-72
2023/04/07 00:05:22;;;;;;;;;;;;;;;4.79;70.93;99720.72;4516438;31;35251;-75
2023/04/07 00:07:49;;;;;;;;;;;;;;;4.14;73.08;99713.81;4502786;31;34015;-77
2023/04/07 00:10:23;;;;;;;;;;;;;;;4.89;70.48;99723.09;4518102;31;34351;-74
2023/04/07 00:12:51;;;;;;;;;;;;;;;5.06;69.22;99720.72;4517787;31;33460;-77
2023/04/07 00:15:18;;;;;;;;;;;;;;;5.04;68.93;99719.75;4517440;31;33894;-78
2023/04/07 00:17:46;;;;;;;;;;;;;;;5.09;68.85;99724.41;4508420;31;34075;-76
2023/04/07 00:20:13;;;;;;;;;;;;;;;4.87;69.12;99722.12;4503762;31;34053;-79
2023/04/07 00:22:40;;;;;;;;;;;;;;;5.48;67.41;99720.03;4518064;31;32769;-73
2023/04/07 00:25:08;;;;;;;;;;;;;;;5.43;67.38;99720.56;4516789;31;34135;-78
2023/04/07 00:27:35;;;;;;;;;;;;;;;5.29;67.45;99715.44;4517025;31;34158;-76
2023/04/07 00:30:03;;;;;;;;;;;;;;;5.21;67.73;99711.47;4516237;31;34959;-73
2023/04/07 00:32:30;;;;;;;;;;;;;;;5.10;68.24;99715.91;4517742;31;33850;-76
2023/04/07 00:34:58;;;;;;;;;;;;;;;5.23;67.47;99716.69;4517614;31;34046;-77
2023/04/07 00:37:28;;;;;;;;;;;;;;;5.23;67.37;99707.31;4516892;31;34894;-78
2023/04/07 00:39:56;;;;;;;;;;;;;;;4.14;71.00;99713.81;4491604;31;34576;-74
2023/04/07 00:42:24;;;;;;;;;;;;;;;5.17;68.28;99704.34;4517830;31;32420;-74
2023/04/07 00:44:51;;;;;;;;;;;;;;;4.76;69.51;99710.25;4510774;31;34705;-73
2023/04/07 00:47:19;;;;;;;;;;;;;;;4.64;68.86;99702.63;4511901;31;34621;-75
2023/04/07 00:49:47;;;;;;;;;;;;;;;3.31;73.49;99709.69;4517095;31;33871;-74
2023/04/07 00:52:14;;;;;;;;;;;;;;;4.65;69.43;99698.38;4514873;31;33369;-77
2023/04/07 00:54:42;;;;;;;;;;;;;;;4.81;67.98;99701.19;4517968;31;33686;-78
2023/04/07 00:57:09;;;;;;;;;;;;;;;4.99;67.65;99700.62;4502760;31;34696;-75
2023/04/07 00:59:37;;;;;;;;;;;;;;;4.95;68.11;99696.06;4513609;31;33646;-74
2023/04/07 01:02:08;;;;;;;;;;;;;;;5.04;67.58;99695.00;4503691;31;33822;-76
2023/04/07 01:04:55;;;;;;;;;;;;;;;4.83;68.00;99694.47;4512900;31;34088;-73
2023/04/07 01:07:26;;;;;;;;;;;;;;;4.41;69.56;99693.41;4502127;31;33961;-75
2023/04/07 01:09:59;;;;;;;;;;;;;;;5.01;67.56;99688.75;4503442;31;34068;-78
2023/04/07 01:12:36;;;;;;;;;;;;;;;4.72;68.65;99682.59;4517470;31;33825;-77
2023/04/07 01:15:05;;;;;;;;;;;;;;;4.53;69.48;99676.25;4517329;31;33905;-77
2023/04/07 01:17:33;;;;;;;;;;;;;;;4.37;70.63;99677.72;4507073;31;33982;-75
2023/04/07 01:20:06;;;;;;;;;;;;;;;4.68;69.36;99678.06;4491847;31;33828;-75
2023/04/07 01:22:39;;;;;;;;;;;;;;;4.85;68.95;99682.63;4502485;31;33159;-77
2023/04/07 01:25:09;;;;;;;;;;;;;;;4.99;68.31;99680.06;4502995;31;34211;-77
2023/04/07 01:27:54;;;;;;;;;;;;;;;4.71;68.70;99683.38;4517790;31;33815;-77
2023/04/07 01:30:21;;;;;;;;;;;;;;;4.92;67.99;99687.38;4517316;31;34098;-75
2023/04/07 01:32:50;;;;;;;;;;;;;;;4.87;68.22;99681.06;4510697;31;33493;-77
2023/04/07 01:35:17;;;;;;;;;;;;;;;5.32;66.59;99677.09;4511514;31;34130;-73
2023/04/07 01:37:47;;;;;;;;;;;;;;;5.28;66.24;99685.38;4516621;31;34176;-74
2023/04/07 01:40:15;;;;;;;;;;;;;;;5.23;66.79;99671.34;4514916;31;33967;-74
2023/04/07 01:42:42;;;;;;;;;;;;;;;5.27;65.76;99673.34;4503030;31;32628;-75
2023/04/07 01:45:09;;;;;;;;;;;;;;;5.32;65.88;99668.50;4505870;31;34893;-76
2023/04/07 01:47:37;;;;;;;;;;;;;;;5.15;65.85;99661.41;4501078;31;34807;-77
2023/04/07 01:50:04;;;;;;;;;;;;;;;5.26;65.83;99674.13;4515433;31;33982;-72
2023/04/07 01:52:32;;;;;;;;;;;;;;;5.45;65.45;99672.75;4517344;31;34052;-71
2023/04/07 01:54:59;;;;;;;;;;;;;;;5.17;66.21;99676.09;4516833;31;34167;-79
2023/04/07 01:57:27;;;;;;;;;;;;;;;5.31;66.29;99669.28;4502933;31;34184;-72
2023/04/07 01:59:55;;;;;;;;;;;;;;;4.99;66.84;99674.94;4515325;31;33198;-75
2023/04/07 02:02:23;;;;;;;;;;;;;;;5.09;67.29;99673.03;4516373;31;33372;-75
2023/04/07 02:04:53;;;;;;;;;;;;;;;5.32;65.63;99666.81;4510695;31;34656;-75
2023/04/07 02:07:23;;;;;;;;;;;;;;;5.13;66.72;99669.00;4503938;31;32434;-77
2023/04/07 02:09:50;;;;;;;;;;;;;;;5.45;65.74;99672.75;4517020;31;34163;-76
2023/04/07 02:12:18;;;;;;;;;;;;;;;5.20;65.83;99671.19;4504541;31;33418;-73
2023/04/07 02:14:47;;;;;;;;;;;;;;;5.39;65.79;99674.91;4510893;31;33831;-77
2023/04/07 02:17:14;;;;;;;;;;;;;;;5.16;66.23;99678.56;4515354;31;33954;-79
2023/04/07 02:19:42;;;;;;;;;;;;;;;5.19;66.09;99674.53;4516947;31;33574;-75
2023/04/07 02:22:10;;;;;;;;;;;;;;;5.46;65.72;99674.50;4477802;31;32763;-76
2023/04/07 02:24:40;;;;;;;;;;;;;;;5.61;64.97;99670.31;4511710;31;33576;-75
2023/04/07 02:27:07;;;;;;;;;;;;;;;5.01;67.05;99678.50;4517286;31;34260;-75
2023/04/07 02:29:35;;;;;;;;;;;;;;;5.83;64.56;99672.56;4516651;31;34364;-75
2023/04/07 02:32:02;;;;;;;;;;;;;;;5.78;64.79;99671.38;4516474;31;33219;-75
2023/04/07 02:34:29;;;;;;;;;;;;;;;5.69;64.79;99669.09;4516797;31;34826;-76
2023/04/07 02:36:57;;;;;;;;;;;;;;;5.77;64.78;99667.00;4516791;31;34095;-77
2023/04/07 02:39:26;;;;;;;;;;;;;;;5.97;64.19;99670.84;4508874;31;34876;-77
2023/04/07 02:41:53;;;;;;;;;;;;;;;5.69;65.64;99661.41;4516037;31;33261;-73
2023/04/07 02:44:21;;;;;;;;;;;;;;;5.17;67.10;99670.97;4517113;31;34143;-75
2023/04/07 02:46:48;;;;;;;;;;;;;;;4.85;69.03;99671.47;4515898;31;34048;-77
2023/04/07 02:49:15;;;;;;;;;;;;;;;4.80;69.55;99673.72;4516024;31;33814;-76
2023/04/07 02:51:43;;;;;;;;;;;;;;;5.16;69.73;99669.22;4516256;31;33499;-77
2023/04/07 02:54:10;;;;;;;;;;;;;;;4.56;71.28;99666.97;4513921;31;32451;-78
2023/04/07 02:56:37;;;;;;;;;;;;;;;4.35;72.78;99667.34;4503061;31;33584;-75
2023/04/07 02:59:05;;;;;;;;;;;;;;;3.85;74.53;99672.47;4515551;31;34456;-74
2023/04/07 03:01:35;;;;;;;;;;;;;;;3.70;77.11;99673.19;4513182;31;34076;-77
2023/04/07 03:04:04;;;;;;;;;;;;;;;3.74;76.63;99670.03;4503991;31;35219;-75
2023/04/07 03:06:32;;;;;;;;;;;;;;;4.67;73.35;99660.88;4511292;31;32479;-74
2023/04/07 03:08:59;;;;;;;;;;;;;;;4.56;73.29;99664.41;4516566;31;34640;-74
2023/04/07 03:11:27;;;;;;;;;;;;;;;4.75;72.93;99664.84;4516213;31;32658;-72
2023/04/07 03:13:55;;;;;;;;;;;;;;;4.38;73.99;99667.53;4515228;31;33545;-77
2023/04/07 03:16:23;;;;;;;;;;;;;;;4.31;75.28;99676.50;4516058;31;35054;-73
2023/04/07 03:18:51;;;;;;;;;;;;;;;3.05;79.69;99677.06;4516074;31;33553;-77
2023/04/07 03:21:19;;;;;;;;;;;;;;;3.12;81.01;99675.06;4486528;31;33678;-77
2023/04/07 03:23:47;;;;;;;;;;;;;;;4.09;77.06;99673.25;4512122;31;33550;-76
2023/04/07 03:26:14;;;;;;;;;;;;;;;4.12;75.61;99668.34;4503244;31;32641;-76
2023/04/07 03:28:42;;;;;;;;;;;;;;;4.40;74.58;99665.97;4515534;31;33755;-73
2023/04/07 03:31:09;;;;;;;;;;;;;;;4.78;73.60;99665.03;4515595;31;33300;-74
2023/04/07 03:33:36;;;;;;;;;;;;;;;4.52;74.93;99660.78;4510719;31;34665;-79
2023/04/07 03:36:04;;;;;;;;;;;;;;;4.91;72.87;99666.75;4516022;31;34812;-75
2023/04/07 03:38:31;;;;;;;;;;;;;;;4.23;75.88;99671.63;4504600;31;34106;-76
2023/04/07 03:40:59;;;;;;;;;;;;;;;4.92;72.98;99663.38;4515464;31;33364;-75
2023/04/07 03:43:27;;;;;;;;;;;;;;;4.57;73.11;99658.50;4499530;31;34171;-76
2023/04/07 03:45:54;;;;;;;;;;;;;;;3.94;76.38;99652.63;4516114;31;33947;-74
2023/04/07 03:48:22;;;;;;;;;;;;;;;4.19;76.42;99654.25;4515956;31;34558;-74
2023/04/07 03:50:50;;;;;;;;;;;;;;;4.88;73.01;99657.16;4496065;31;33135;-77
2023/04/07 03:53:18;;;;;;;;;;;;;;;4.80;73.00;99655.78;4515711;31;34063;-78
2023/04/07 03:55:47;;;;;;;;;;;;;;;4.71;73.16;99655.16;4515884;31;33942;-73
2023/04/07 03:58:15;;;;;;;;;;;;;;;4.64;73.57;99655.56;4515341;31;35762;-75
2023/04/07 04:00:44;;;;;;;;;;;;;;;4.44;74.73;99660.28;4496332;31;33406;-73
2023/04/07 04:03:12;;;;;;;;;;;;;;;4.70;73.95;99656.84;4509945;31;34142;-75
2023/04/07 04:05:40;;;;;;;;;;;;;;;4.31;75.31;99660.25;4515426;31;33691;-78
2023/04/07 04:08:09;;;;;;;;;;;;;;;4.82;73.20;99664.44;4515572;31;34688;-74
2023/04/07 04:10:37;;;;;;;;;;;;;;;4.66;73.07;99674.50;4501423;31;33030;-74
2023/04/07 04:13:06;;;;;;;;;;;;;;;5.17;71.99;99670.97;4503608;31;35137;-73
2023/04/07 04:15:34;;;;;;;;;;;;;;;5.30;70.94;99668.41;4507415;31;34607;-75
2023/04/07 04:18:02;;;;;;;;;;;;;;;4.33;73.58;99674.03;4489183;31;34915;-75
2023/04/07 04:20:30;;;;;;;;;;;;;;;3.97;77.03;99673.31;4493950;31;33897;-72
2023/04/07 04:22:57;;;;;;;;;;;;;;;4.77;73.00;99673.56;4507852;31;33728;-76
2023/04/07 04:25:25;;;;;;;;;;;;;;;4.88;72.12;99682.81;4493678;31;35017;-78
2023/04/07 04:27:52;;;;;;;;;;;;;;;5.05;71.47;99676.22;4473100;31;34791;-74
2023/04/07 04:30:20;;;;;;;;;;;;;;;5.15;71.12;99677.69;4500300;31;33153;-78
2023/04/07 04:32:48;;;;;;;;;;;;;;;5.20;70.55;99680.56;4501627;31;34216;-78
2023/04/07 04:35:17;;;;;;;;;;;;;;;5.04;70.65;99683.81;4498548;31;33563;-76
2023/04/07 04:37:45;;;;;;;;;;;;;;;5.07;71.06;99678.88;4486459;31;34096;-73
2023/04/07 04:40:13;;;;;;;;;;;;;;;4.75;71.65;99680.22;4494965;31;33557;-74
2023/04/07 04:42:41;;;;;;;;;;;;;;;4.69;72.85;99684.97;4501351;31;33593;-74
2023/04/07 04:45:09;;;;;;;;;;;;;;;4.74;72.44;99688.72;4499965;31;32803;-77
2023/04/07 04:47:38;;;;;;;;;;;;;;;4.85;72.13;99690.34;4499595;31;34193;-79
2023/04/07 04:50:05;;;;;;;;;;;;;;;4.98;71.43;99693.69;4501385;31;33326;-75
2023/04/07 04:52:33;;;;;;;;;;;;;;;4.80;72.11;99691.69;4499283;31;34406;-77
2023/04/07 04:55:01;;;;;;;;;;;;;;;4.68;72.42;99693.47;4498515;31;33980;-76
2023/04/07 04:57:28;;;;;;;;;;;;;;;4.72;72.06;99695.44;4488157;31;34124;-74
2023/04/07 04:59:57;;;;;;;;;;;;;;;4.51;73.12;99700.91;4500579;31;32632;-75
2023/04/07 05:02:25;;;;;;;;;;;;;;;4.42;73.32;99695.16;4486962;31;33840;-75
2023/04/07 05:04:53;;;;;;;;;;;;;;;4.58;73.22;99696.19;4494654;31;34898;-78
2023/04/07 05:07:21;;;;;;;;;;;;;;;4.33;73.79;99694.56;4489064;31;35017;-76
2023/04/07 05:09:48;;;;;;;;;;;;;;;4.45;73.72;99694.50;4487433;31;34223;-78
2023/04/07 05:12:16;;;;;;;;;;;;;;;4.26;74.57;99707.75;4486757;31;33916;-74
2023/04/07 05:14:45;;;;;;;;;;;;;;;4.17;75.24;99713.13;4490392;31;33760;-77
2023/04/07 05:17:12;;;;;;;;;;;;;;;4.44;74.35;99719.25;4486368;31;34750;-75
2023/04/07 05:19:40;;;;;;;;;;;;;;;4.79;72.82;99706.97;4482375;31;34047;-77
2023/04/07 05:22:08;;;;;;;;;;;;;;;4.45;74.05;99697.94;4491577;31;33838;-78
2023/04/07 05:24:38;;;;;;;;;;;;;;;4.29;74.17;99698.59;4478850;31;34041;-78
2023/04/07 05:27:05;;;;;;;;;;;;;;;4.09;76.10;99702.34;4500900;31;34767;-78
2023/04/07 05:29:33;;;;;;;;;;;;;;;4.34;74.84;99717.72;4483926;31;33332;-73
2023/04/07 05:32:01;;;;;;;;;;;;;;;4.44;74.58;99724.41;4488841;31;34163;-76
2023/04/07 05:34:29;;;;;;;;;;;;;;;4.40;74.55;99730.06;4493376;31;35041;-79
2023/04/07 05:36:56;;;;;;;;;;;;;;;4.59;73.44;99728.75;4494742;31;34791;-77
2023/04/07 05:39:24;;;;;;;;;;;;;;;4.68;73.59;99729.38;4495108;31;33821;-77
2023/04/07 05:41:52;;;;;;;;;;;;;;;5.02;72.49;99734.16;4483708;31;33716;-75
2023/04/07 05:44:20;;;;;;;;;;;;;;;5.05;72.08;99726.69;4485558;31;34422;-78
2023/04/07 05:46:48;;;;;;;;;;;;;;;4.55;73.43;99717.41;4502182;31;34671;-75
2023/04/07 05:49:16;;;;;;;;;;;;;;;4.41;74.19;99724.16;4503707;31;33897;-75
2023/04/07 05:51:47;;;;;;;;;;;;;;;4.35;74.99;99723.75;4485731;31;32358;-76
2023/04/07 05:54:16;;;;;;;;;;;;;;;4.25;75.77;99726.47;4502429;31;34262;-79
2023/04/07 05:56:43;;;;;;;;;;;;;;;4.24;75.60;99745.22;4498291;31;34056;-77
2023/04/07 05:59:11;;;;;;;;;;;;;;;4.47;74.79;99729.72;4496588;31;33792;-76
2023/04/07 06:01:38;;;;;;;;;;;;;;;4.37;75.52;99721.31;4497788;31;34127;-75
2023/04/07 06:04:07;;;;;;;;;;;;;;;4.53;74.88;99726.66;4488589;31;30838;-75
2023/04/07 06:06:34;;;;;;;;;;;;;;;4.69;74.18;99726.00;4496014;31;33654;-75
2023/04/07 06:09:05;;;;;;;;;;;;;;;4.51;74.22;99726.56;4498033;31;33648;-78
2023/04/07 06:11:35;;;;;;;;;;;;;;;4.35;75.07;99728.88;4482247;31;33820;-79
2023/04/07 06:14:02;;;;;;;;;;;;;;;4.40;74.66;99727.50;4493048;31;34238;-78
2023/04/07 06:16:30;;;;;;;;;;;;;;;4.42;74.87;99731.06;4500892;31;33919;-77
2023/04/07 06:18:59;;;;;;;;;;;;;;;4.48;74.30;99721.25;4501598;31;33231;-75
2023/04/07 06:21:28;;;;;;;;;;;;;;;4.71;74.01;99714.19;4486937;31;34094;-77
2023/04/07 06:23:55;;;;;;;;;;;;;;;4.72;73.62;99721.09;4487996;31;33861;-76
2023/04/07 06:26:22;;;;;;;;;;;;;;;4.70;73.17;99720.13;4481984;31;34973;-74
2023/04/07 06:28:50;;;;;;;;;;;;;;;4.55;73.55;99721.66;4502512;31;33085;-79
2023/04/07 06:31:18;;;;;;;;;;;;;;;4.97;73.02;99722.72;4468015;31;34798;-74
2023/04/07 06:33:46;;;;;;;;;;;;;;;4.92;72.39;99720.75;4498281;31;35571;-75
2023/04/07 06:36:14;;;;;;;;;;;;;;;5.02;72.30;99721.34;4500471;31;34155;-76
2023/04/07 06:38:42;;;;;;;;;;;;;;;4.45;75.15;99715.00;4500145;31;33572;-73
2023/04/07 06:41:15;;;;;;;;;;;;;;;5.14;72.36;99727.28;4514222;31;34028;-78
2023/04/07 06:43:43;;;;;;;;;;;;;;;5.44;71.03;99738.62;4498764;31;35106;-75
2023/04/07 06:46:11;;;;;;;;;;;;;;;5.65;70.46;99739.09;4484407;31;34455;-76
2023/04/07 06:48:38;;;;;;;;;;;;;;;5.58;70.90;99736.97;4496636;31;33207;-77
2023/04/07 06:51:06;;;;;;;;;;;;;;;5.52;69.54;99741.69;4495506;31;33895;-77
2023/04/07 06:53:33;;;;;;;;;;;;;;;5.72;69.87;99733.56;4476969;31;32603;-80
2023/04/07 06:56:04;;;;;;;;;;;;;;;5.74;69.45;99737.88;4498082;31;34797;-75
2023/04/07 06:58:32;;;;;;;;;;;;;;;5.52;70.98;99746.81;4498734;31;33227;-78
2023/04/07 07:01:00;;;;;;;;;;;;;;;5.99;68.77;99750.63;4503526;31;34564;-75
2023/04/07 07:03:28;;;;;;;;;;;;;;;6.18;67.36;99752.66;4500124;31;35116;-78
2023/04/07 07:05:55;;;;;;;;;;;;;;;6.09;67.35;99753.88;4482100;31;34265;-76
2023/04/07 07:08:24;;;;;;;;;;;;;;;6.58;66.57;99755.06;4495644;31;32766;-76
2023/04/07 07:10:51;;;;;;;;;;;;;;;6.36;66.49;99756.34;4492660;31;34307;-74
2023/04/07 07:13:19;;;;;;;;;;;;;;;6.02;67.54;99762.00;4484044;31;34264;-77
2023/04/07 07:15:47;;;;;;;;;;;;;;;6.85;65.50;99767.00;4500887;31;33546;-74
2023/04/07 07:18:14;;;;;;;;;;;;;;;6.74;65.56;99768.06;4502603;31;33412;-76
2023/04/07 07:20:41;;;;;;;;;;;;;;;6.96;65.76;99765.06;4511429;31;34197;-75
2023/04/07 07:23:09;;;;;;;;;;;;;;;6.90;63.52;99764.72;4506590;31;33569;-74
2023/04/07 07:25:36;;;;;;;;;;;;;;;6.94;64.44;99770.94;4509365;31;35335;-78
2023/04/07 07:28:04;;;;;;;;;;;;;;;6.83;64.86;99770.28;4514148;31;32630;-74
2023/04/07 07:30:31;;;;;;;;;;;;;;;6.95;64.04;99777.84;4519056;31;34147;-76
2023/04/07 07:33:00;;;;;;;;;;;;;;;6.77;63.73;99783.69;4514515;31;33620;-76
2023/04/07 07:35:27;;;;;;;;;;;;;;;7.02;63.76;99779.97;4506865;31;33336;-76
2023/04/07 07:37:54;;;;;;;;;;;;;;;7.15;64.16;99792.78;4502760;31;34072;-79
2023/04/07 07:40:22;;;;;;;;;;;;;;;7.26;64.37;99786.56;4516771;31;33838;-76
2023/04/07 07:42:50;;;;;;;;;;;;;;;7.18;65.55;99792.06;4500593;31;34100;-77
2023/04/07 07:45:18;;;;;;;;;;;;;;;6.84;67.39;99793.56;4514894;31;34096;-76
2023/04/07 07:47:45;;;;;;;;;;;;;;;7.17;66.77;99792.88;4514618;31;33650;-79
2023/04/07 07:50:13;;;;;;;;;;;;;;;7.65;65.03;99802.53;4502094;31;34647;-76
2023/04/07 07:52:40;;;;;;;;;;;;;;;7.74;64.89;99796.97;4525475;31;33873;-76
2023/04/07 07:55:08;;;;;;;;;;;;;;;7.79;65.43;99797.25;4520584;31;34501;-75
2023/04/07 07:57:35;;;;;;;;;;;;;;;7.51;66.79;99797.38;4513636;31;33402;-76
2023/04/07 08:00:03;;;;;;;;;;;;;;;7.46;67.19;99804.84;4507137;31;34491;-75
2023/04/07 08:02:39;;;;;;;;;;;;;;;7.75;66.14;99813.34;4502970;31;34803;-77
2023/04/07 08:05:07;;;;;;;;;;;;;;;7.96;66.00;99814.53;4509723;31;34753;-77
2023/04/07 08:07:34;;;;;;;;;;;;;;;8.16;66.29;99813.03;4505658;31;34009;-79
2023/04/07 08:10:02;;;;;;;;;;;;;;;8.12;66.17;99816.25;4507392;31;34087;-80
2023/04/07 08:12:30;;;;;;;;;;;;;;;7.90;66.96;99824.53;4509107;31;33753;-78
2023/04/07 08:14:57;;;;;;;;;;;;;;;8.42;65.21;99827.41;4496815;31;33703;-79
2023/04/07 08:17:25;;;;;;;;;;;;;;;8.14;66.21;99818.94;4486988;31;33719;-79
2023/04/07 08:19:52;;;;;;;;;;;;;;;8.56;64.94;99814.34;4485151;31;34913;-77
2023/04/07 08:22:20;;;;;;;;;;;;;;;8.42;65.19;99819.66;4491083;31;34273;-75
2023/04/07 08:24:47;;;;;;;;;;;;;;;8.53;64.74;99829.66;4495609;31;34289;-76
2023/04/07 08:27:14;;;;;;;;;;;;;;;8.56;65.09;99820.38;4499301;31;33744;-76
2023/04/07 08:29:42;;;;;;;;;;;;;;;8.71;64.29;99827.16;4489278;31;33649;-78
2023/04/07 08:32:09;;;;;;;;;;;;;;;8.24;64.77;99834.09;4492888;31;34617;-74
2023/04/07 08:34:37;;;;;;;;;;;;;;;8.68;63.18;99829.59;4491139;31;33804;-78
2023/04/07 08:37:04;;;;;;;;;;;;;;;8.70;62.79;99823.69;4507591;31;33011;-75
2023/04/07 08:39:32;;;;;;;;;;;;;;;8.18;63.45;99826.91;4499401;31;33624;-78
2023/04/07 08:41:59;;;;;;;;;;;;;;;8.11;62.16;99841.97;4488582;31;32118;-74
2023/04/07 08:44:27;;;;;;;;;;;;;;;7.55;63.72;99841.47;4498120;31;33175;-79
2023/04/07 08:46:55;;;;;;;;;;;;;;;7.80;64.45;99837.69;4495100;31;33308;-75
2023/04/07 08:49:22;;;;;;;;;;;;;;;8.36;62.25;99836.47;4477962;31;34700;-76
2023/04/07 08:51:49;;;;;;;;;;;;;;;7.95;63.75;99851.44;4489923;31;33576;-77
2023/04/07 08:54:17;;;;;;;;;;;;;;;7.11;66.69;99841.44;4491284;31;35060;-76
2023/04/07 08:56:45;;;;;;;;;;;;;;;7.11;67.34;99847.50;4489792;31;33824;-76
2023/04/07 08:59:13;;;;;;;;;;;;;;;7.70;65.90;99845.72;4487650;31;34147;-76
2023/04/07 09:01:40;;;;;;;;;;;;;;;7.99;64.93;99850.81;4506189;31;33650;-74
2023/04/07 09:04:09;;;;;;;;;;;;;;;7.50;67.13;99837.72;4501854;31;34371;-76
2023/04/07 09:06:37;;;;;;;;;;;;;;;7.82;65.78;99836.09;4509260;31;33222;-77
2023/04/07 09:09:05;;;;;;;;;;;;;;;7.99;65.28;99840.50;4515765;31;34008;-78
2023/04/07 09:11:37;;;;;;;;;;;;;;;8.09;67.28;99847.03;4495562;31;33949;-76
2023/04/07 09:14:04;;;;;;;;;;;;;;;8.72;63.66;99837.56;4499670;31;34118;-77
2023/04/07 09:16:32;;;;;;;;;;;;;;;8.96;61.88;99837.06;4501731;31;31851;-75
2023/04/07 09:19:01;;;;;;;;;;;;;;;8.87;61.77;99832.31;4492987;31;33841;-75
2023/04/07 09:21:45;;;;;;;;;;;;;;;9.07;61.32;99835.94;4511645;31;34224;-76
2023/04/07 09:24:21;;;;;;;;;;;;;;;8.63;62.59;99831.91;4509234;31;34819;-79
2023/04/07 09:26:48;;;;;;;;;;;;;;;8.28;64.50;99833.47;4506834;31;33093;-76
2023/04/07 09:29:19;;;;;;;;;;;;;;;8.96;62.22;99831.91;4511367;31;34152;-79
2023/04/07 09:31:50;;;;;;;;;;;;;;;8.34;63.65;99832.91;4497480;31;33894;-78
2023/04/07 09:34:26;;;;;;;;;;;;;;;8.92;62.17;99840.31;4512840;31;34698;-78
2023/04/07 09:36:54;;;;;;;;;;;;;;;8.63;62.50;99831.91;4485346;31;32896;-76
2023/04/07 09:39:23;;;;;;;;;;;;;;;8.88;61.09;99843.53;4518063;31;34684;-77
2023/04/07 09:41:50;;;;;;;;;;;;;;;7.82;66.30;99843.81;4502681;31;33249;-79
2023/04/07 09:44:18;;;;;;;;;;;;;;;7.34;66.52;99845.34;4516447;31;34701;-77
2023/04/07 09:46:52;;;;;;;;;;;;;;;7.40;68.13;99845.75;4499144;31;33444;-76
2023/04/07 09:49:20;;;;;;;;;;;;;;;6.83;70.61;99845.84;4496852;31;33831;-78
2023/04/07 09:52:07;;;;;;;;;;;;;;;6.36;72.00;99846.41;4512796;31;33863;-77
2023/04/07 09:54:39;;;;;;;;;;;;;;;6.09;72.63;99851.59;4512334;31;33981;-73
2023/04/07 09:57:08;;;;;;;;;;;;;;;7.81;67.40;99847.22;4514090;31;34011;-76
2023/04/07 09:59:39;;;;;;;;;;;;;;;7.83;66.55;99848.19;4512722;31;34644;-76
2023/04/07 10:02:07;;;;;;;;;;;;;;;7.66;65.36;99845.53;4513247;31;34039;-76
2023/04/07 10:04:35;;;;;;;;;;;;;;;7.35;67.76;99849.72;4501664;31;34424;-75
2023/04/07 10:07:03;;;;;;;;;;;;;;;8.06;66.42;99847.78;4512617;31;34373;-74
2023/04/07 10:09:30;;;;;;;;;;;;;;;6.82;68.90;99843.19;4511792;31;33853;-74
2023/04/07 10:11:58;;;;;;;;;;;;;;;6.81;70.35;99842.28;4499328;31;32605;-76
2023/04/07 10:14:27;;;;;;;;;;;;;;;7.13;69.60;99839.84;4494286;31;33781;-75
2023/04/07 10:16:54;;;;;;;;;;;;;;;6.96;71.48;99841.44;4500038;31;33771;-74
2023/04/07 10:19:22;;;;;;;;;;;;;;;7.01;70.13;99840.91;4478699;31;33425;-76
2023/04/07 10:21:50;;;;;;;;;;;;;;;7.74;67.13;99850.25;4499255;31;34144;-75
2023/04/07 10:24:47;;;;;;;;;;;;;;;8.58;64.12;99839.44;4498875;31;34616;-77
2023/04/07 10:27:15;;;;;;;;;;;;;;;8.06;66.84;99845.19;4474461;31;32914;-76
2023/04/07 10:29:44;;;;;;;;;;;;;;;8.87;64.69;99844.38;4499599;31;34882;-74
2023/04/07 10:32:11;;;;;;;;;;;;;;;9.04;62.01;99840.97;4490777;31;34209;-74
2023/04/07 10:34:53;;;;;;;;;;;;;;;9.68;60.67;99839.78;4486387;31;34780;-75
2023/04/07 10:37:21;;;;;;;;;;;;;;;8.59;63.92;99840.31;4500395;31;33445;-76
2023/04/07 10:39:50;;;;;;;;;;;;;;;8.00;66.43;99850.03;4486271;31;34960;-73
2023/04/07 10:42:36;;;;;;;;;;;;;;;9.13;61.07;99841.41;4499287;31;34273;-76
2023/04/07 10:45:04;;;;;;;;;;;;;;;9.21;60.97;99845.28;4497255;31;35232;-76
2023/04/07 10:47:31;;;;;;;;;;;;;;;8.56;62.98;99850.50;4483156;31;34808;-77
2023/04/07 10:50:11;;;;;;;;;;;;;;;8.99;61.93;99845.00;4485568;31;33880;-76
2023/04/07 10:52:39;;;;;;;;;;;;;;;9.20;60.97;99845.19;4498085;31;34314;-76
2023/04/07 10:55:24;;;;;;;;;;;;;;;9.13;60.95;99846.56;4493822;31;34140;-76
2023/04/07 10:58:11;;;;;;;;;;;;;;;9.43;59.65;99846.38;4497563;31;33565;-76
2023/04/07 11:00:38;;;;;;;;;;;;;;;9.78;57.79;99845.50;4499324;31;34709;-77
2023/04/07 11:03:10;;;;;;;;;;;;;;;8.03;63.49;99852.75;4498902;31;34298;-77
2023/04/07 11:05:38;;;;;;;;;;;;;;;7.84;65.20;99853.44;4490727;31;34957;-76
2023/04/07 11:08:07;;;;;;;;;;;;;;;7.50;67.18;99848.03;4499234;31;32912;-75
2023/04/07 11:10:34;;;;;;;;;;;;;;;7.70;65.95;99850.88;4497217;31;34518;-78
2023/04/07 11:13:03;;;;;;;;;;;;;;;8.65;62.74;99846.69;4497072;31;34052;-76
2023/04/07 11:15:30;;;;;;;;;;;;;;;9.50;59.77;99853.59;4510784;31;34103;-77
2023/04/07 11:18:10;;;;;;;;;;;;;;;10.05;57.13;99850.22;4511896;31;31991;-79
2023/04/07 11:20:42;;;;;;;;;;;;;;;10.37;55.91;99848.28;4500005;31;33384;-77
2023/04/07 11:23:12;;;;;;;;;;;;;;;9.67;56.83;99846.66;4517163;31;33853;-78
2023/04/07 11:25:41;;;;;;;;;;;;;;;7.95;61.78;99859.19;4500164;31;32899;-78
2023/04/07 11:28:09;;;;;;;;;;;;;;;9.37;58.04;99851.22;4514731;31;33250;-78
2023/04/07 11:30:36;;;;;;;;;;;;;;;9.90;56.95;99852.97;4502836;31;33881;-75
2023/04/07 11:33:03;;;;;;;;;;;;;;;10.04;55.96;99846.78;4503101;31;33899;-79
2023/04/07 11:35:31;;;;;;;;;;;;;;;10.24;55.31;99847.69;4509588;31;34628;-75
2023/04/07 11:37:59;;;;;;;;;;;;;;;9.48;56.59;99844.88;4503619;31;32583;-77
2023/04/07 11:40:34;;;;;;;;;;;;;;;10.06;55.62;99845.94;4498326;31;33353;-78
2023/04/07 11:43:02;;;;;;;;;;;;;;;8.66;59.35;99847.59;4514240;31;33906;-80
2023/04/07 11:45:29;;;;;;;;;;;;;;;7.77;61.80;99858.16;4501480;31;34301;-77
2023/04/07 11:47:57;;;;;;;;;;;;;;;7.93;63.00;99850.47;4487769;31;33550;-76
2023/04/07 11:50:37;;;;;;;;;;;;;;;8.59;60.66;99843.78;4500104;31;33684;-78
2023/04/07 11:53:04;;;;;;;;;;;;;;;9.17;58.74;99842.44;4504227;31;33804;-78
2023/04/07 11:55:32;;;;;;;;;;;;;;;8.00;61.26;99852.59;4507127;31;35446;-76
2023/04/07 11:58:09;;;;;;;;;;;;;;;8.37;60.63;99849.44;4504231;31;33365;-77
2023/04/07 12:00:52;;;;;;;;;;;;;;;8.45;61.72;99843.03;4515575;31;34364;-77
2023/04/07 12:03:19;;;;;;;;;;;;;;;8.77;60.82;99846.47;4501485;31;36073;-76
2023/04/07 12:05:47;;;;;;;;;;;;;;;8.72;60.07;99853.06;4501018;31;32875;-76
2023/04/07 12:08:15;;;;;;;;;;;;;;;7.93;62.79;99855.63;4514625;31;33127;-78
2023/04/07 12:10:44;;;;;;;;;;;;;;;8.11;64.34;99849.72;4498072;31;34693;-77
2023/04/07 12:13:12;;;;;;;;;;;;;;;8.22;62.98;99859.81;4487141;31;32479;-79
2023/04/07 12:15:39;;;;;;;;;;;;;;;8.23;62.17;99853.88;4515317;31;33894;-76
2023/04/07 12:18:07;;;;;;;;;;;;;;;8.82;59.98;99844.09;4517195;31;32754;-78
2023/04/07 12:20:34;;;;;;;;;;;;;;;9.12;59.24;99849.97;4516069;31;34097;-79
2023/04/07 12:23:03;;;;;;;;;;;;;;;9.18;59.26;99850.28;4513828;31;33634;-78
2023/04/07 12:25:31;;;;;;;;;;;;;;;9.40;58.39;99848.78;4513205;31;33984;-76
2023/04/07 12:27:58;;;;;;;;;;;;;;;9.61;57.71;99842.09;4509731;31;33177;-75
2023/04/07 12:30:25;;;;;;;;;;;;;;;10.08;57.13;99840.00;4510515;31;34291;-79
2023/04/07 12:32:53;;;;;;;;;;;;;;;9.98;57.49;99845.56;4510333;31;34716;-78
2023/04/07 12:35:20;;;;;;;;;;;;;;;9.64;58.21;99839.66;4510036;31;34380;-76
2023/04/07 12:37:48;;;;;;;;;;;;;;;9.69;58.04;99834.69;4512115;31;33581;-76
2023/04/07 12:40:16;;;;;;;;;;;;;;;10.26;56.08;99833.91;4512883;31;34058;-78
2023/04/07 12:42:43;;;;;;;;;;;;;;;10.14;56.17;99829.06;4510355;31;33880;-78
2023/04/07 12:45:11;;;;;;;;;;;;;;;10.13;56.33;99838.53;4512130;31;34251;-78
2023/04/07 12:47:38;;;;;;;;;;;;;;;8.60;60.46;99842.09;4505785;31;32917;-75
2023/04/07 12:50:06;;;;;;;;;;;;;;;8.46;61.21;99844.81;4515659;31;33742;-76
2023/04/07 12:52:33;;;;;;;;;;;;;;;9.37;59.25;99839.19;4514899;31;34161;-76
2023/04/07 12:55:00;;;;;;;;;;;;;;;9.31;58.32;99841.47;4501979;31;33741;-77
2023/04/07 12:57:28;;;;;;;;;;;;;;;9.20;59.08;99843.50;4513985;31;32911;-77
2023/04/07 12:59:55;;;;;;;;;;;;;;;10.04;56.67;99843.28;4514972;31;34687;-77
2023/04/07 13:02:23;;;;;;;;;;;;;;;10.31;55.81;99842.81;4517381;31;34997;-78
2023/04/07 13:04:51;;;;;;;;;;;;;;;8.94;60.61;99846.44;4509357;31;33802;-75